Time;durP1;ratioP1;P1;durP2;ratioP2;P2;SDS_P1;SDS_P2;PMS_P1;PMS_P2;Temp;Humidity;BMP_temperature;BMP_pressure;BME280_temperature;BME280_humidity;BME280_pressure;Samples;Min_cycle;Max_cycle;Signal;HPM_P1;HPM_P2
2021/04/17 00:00:32;;;;;;;5.88;4.90;;;;;;;;;;5054223;28;20199;-66
2021/04/17 00:02:59;;;;;;;6.35;4.10;;;;;;;;;;5055175;28;20634;-66
2021/04/17 00:05:26;;;;;;;8.73;5.05;;;;;;;;;;5054905;28;20240;-66
2021/04/17 00:07:53;;;;;;;7.63;4.60;;;;;;;;;;5054401;28;20313;-67
2021/04/17 00:10:19;;;;;;;8.18;4.28;;;;;;;;;;5055402;28;20203;-66
2021/04/17 00:12:47;;;;;;;6.35;4.97;;;;;;;;;;5055218;28;20253;-66
2021/04/17 00:15:14;;;;;;;6.07;4.43;;;;;;;;;;5054514;28;20391;-66
2021/04/17 00:17:41;;;;;;;7.38;5.03;;;;;;;;;;5054828;28;20206;-66
2021/04/17 00:20:08;;;;;;;5.50;4.32;;;;;;;;;;5054608;28;20203;-66
2021/04/17 00:22:34;;;;;;;5.55;4.07;;;;;;;;;;5054299;28;20671;-67
2021/04/17 00:25:01;;;;;;;6.05;4.63;;;;;;;;;;5055061;28;20199;-66
2021/04/17 00:27:28;;;;;;;5.65;4.43;;;;;;;;;;5054079;28;20205;-66
2021/04/17 00:29:55;;;;;;;6.55;4.38;;;;;;;;;;5054811;28;20197;-66
2021/04/17 00:32:22;;;;;;;5.55;4.65;;;;;;;;;;5054438;28;20333;-67
2021/04/17 00:34:49;;;;;;;6.90;4.53;;;;;;;;;;5054635;28;20206;-67
2021/04/17 00:37:15;;;;;;;6.20;5.03;;;;;;;;;;5057133;28;20191;-67
2021/04/17 00:39:42;;;;;;;6.20;4.32;;;;;;;;;;5057534;28;20282;-67
2021/04/17 00:42:09;;;;;;;6.15;4.38;;;;;;;;;;5056104;28;20196;-67
2021/04/17 00:44:36;;;;;;;6.78;4.60;;;;;;;;;;5054837;28;20195;-66
2021/04/17 00:47:04;;;;;;;8.80;5.32;;;;;;;;;;5054554;28;20204;-68
2021/04/17 00:49:31;;;;;;;9.00;4.70;;;;;;;;;;5034916;28;597939;-67
2021/04/17 00:51:58;;;;;;;7.25;4.28;;;;;;;;;;5057202;28;20470;-67
2021/04/17 00:54:25;;;;;;;5.65;4.80;;;;;;;;;;5055194;28;20213;-66
2021/04/17 00:56:51;;;;;;;10.23;5.13;;;;;;;;;;5055589;28;20199;-66
2021/04/17 00:59:18;;;;;;;6.32;4.70;;;;;;;;;;5055409;28;20200;-66
2021/04/17 01:01:45;;;;;;;5.55;4.10;;;;;;;;;;5054962;28;20197;-66
2021/04/17 01:04:16;;;;;;;6.38;4.68;;;;;;;;;;5054898;28;20302;-66
2021/04/17 01:06:47;;;;;;;6.97;4.38;;;;;;;;;;5054603;28;20215;-66
2021/04/17 01:09:19;;;;;;;11.38;5.07;;;;;;;;;;5055131;28;20218;-66
2021/04/17 01:11:46;;;;;;;6.38;4.40;;;;;;;;;;5054479;28;20206;-66
2021/04/17 01:14:15;;;;;;;4.63;4.00;;;;;;;;;;5055300;28;20263;-66
2021/04/17 01:16:42;;;;;;;6.20;4.90;;;;;;;;;;5054343;28;20200;-66
2021/04/17 01:19:10;;;;;;;5.13;4.00;;;;;;;;;;5054269;28;20199;-66
2021/04/17 01:21:38;;;;;;;7.15;5.03;;;;;;;;;;5054237;28;20675;-66
2021/04/17 01:24:10;;;;;;;5.85;4.53;;;;;;;;;;5054704;28;20207;-66
2021/04/17 01:26:38;;;;;;;8.80;4.35;;;;;;;;;;5054883;28;20530;-66
2021/04/17 01:29:04;;;;;;;4.90;3.70;;;;;;;;;;5054501;28;20219;-66
2021/04/17 01:31:34;;;;;;;10.38;5.13;;;;;;;;;;5054413;28;20197;-66
2021/04/17 01:34:01;;;;;;;6.35;4.10;;;;;;;;;;5054088;28;20203;-65
2021/04/17 01:36:29;;;;;;;4.97;4.45;;;;;;;;;;5054163;28;20195;-65
2021/04/17 01:38:57;;;;;;;6.28;4.22;;;;;;;;;;5054221;28;20209;-66
2021/04/17 01:41:24;;;;;;;7.30;4.95;;;;;;;;;;5054097;28;20541;-65
2021/04/17 01:43:53;;;;;;;6.50;4.50;;;;;;;;;;5054290;28;20606;-66
2021/04/17 01:46:22;;;;;;;9.65;4.75;;;;;;;;;;5054174;28;20202;-66
2021/04/17 01:48:51;;;;;;;9.25;4.65;;;;;;;;;;5053917;28;20330;-66
2021/04/17 01:51:18;;;;;;;13.10;5.95;;;;;;;;;;5054026;28;20207;-66
2021/04/17 01:53:46;;;;;;;6.63;4.20;;;;;;;;;;5054316;28;20191;-66
2021/04/17 01:56:14;;;;;;;7.10;5.63;;;;;;;;;;5053902;28;20272;-66
2021/04/17 01:58:42;;;;;;;6.47;5.18;;;;;;;;;;5053566;28;20676;-66
2021/04/17 02:01:10;;;;;;;6.13;4.45;;;;;;;;;;5054129;28;20286;-66
2021/04/17 02:03:37;;;;;;;9.05;4.45;;;;;;;;;;5054277;28;20599;-67
2021/04/17 02:06:03;;;;;;;6.53;4.30;;;;;;;;;;5053911;28;20195;-66
2021/04/17 02:08:34;;;;;;;10.20;5.30;;;;;;;;;;5053488;28;20683;-66
2021/04/17 02:11:01;;;;;;;7.40;4.88;;;;;;;;;;5054211;28;20187;-65
2021/04/17 02:13:27;;;;;;;7.13;5.13;;;;;;;;;;5053947;28;20199;-66
2021/04/17 02:15:56;;;;;;;5.05;4.20;;;;;;;;;;5054056;28;20236;-66
2021/04/17 02:18:25;;;;;;;6.90;5.03;;;;;;;;;;5053707;28;20209;-66
2021/04/17 02:20:59;;;;;;;6.30;4.30;;;;;;;;;;5053730;28;20587;-65
2021/04/17 02:23:26;;;;;;;4.88;4.05;;;;;;;;;;5053734;28;20190;-66
2021/04/17 02:25:52;;;;;;;5.15;4.25;;;;;;;;;;5053337;28;20203;-66
2021/04/17 02:28:19;;;;;;;5.40;4.38;;;;;;;;;;5053670;28;20219;-66
2021/04/17 02:30:46;;;;;;;6.97;5.28;;;;;;;;;;5053299;28;20202;-65
2021/04/17 02:33:13;;;;;;;7.75;5.97;;;;;;;;;;5053548;28;20240;-66
2021/04/17 02:35:40;;;;;;;7.35;4.78;;;;;;;;;;5053489;28;20195;-65
2021/04/17 02:38:07;;;;;;;7.88;5.78;;;;;;;;;;5053454;28;20191;-66
2021/04/17 02:40:34;;;;;;;8.88;5.00;;;;;;;;;;5053435;28;20195;-65
2021/04/17 02:43:00;;;;;;;7.40;5.05;;;;;;;;;;5053844;28;20528;-66
2021/04/17 02:45:27;;;;;;;8.27;5.53;;;;;;;;;;5053647;28;20195;-65
2021/04/17 02:47:54;;;;;;;6.50;5.55;;;;;;;;;;5052883;28;20222;-65
2021/04/17 02:50:20;;;;;;;8.23;5.68;;;;;;;;;;5053607;28;20197;-65
2021/04/17 02:52:48;;;;;;;6.57;5.15;;;;;;;;;;5053325;28;20286;-65
2021/04/17 02:55:16;;;;;;;10.85;5.30;;;;;;;;;;5053360;28;20199;-66
2021/04/17 02:57:42;;;;;;;7.32;4.38;;;;;;;;;;5053332;28;20195;-67
2021/04/17 03:00:10;;;;;;;7.07;5.13;;;;;;;;;;5053495;28;20195;-67
2021/04/17 03:02:37;;;;;;;7.70;5.10;;;;;;;;;;5053258;28;20205;-66
2021/04/17 03:05:05;;;;;;;7.13;4.40;;;;;;;;;;5052845;28;20244;-65
2021/04/17 03:07:32;;;;;;;10.63;5.50;;;;;;;;;;5053688;28;20190;-65
2021/04/17 03:09:59;;;;;;;5.43;4.85;;;;;;;;;;5053183;28;20199;-65
2021/04/17 03:12:26;;;;;;;9.05;5.20;;;;;;;;;;5053280;28;20209;-65
2021/04/17 03:14:52;;;;;;;7.47;4.85;;;;;;;;;;5053156;28;20195;-66
2021/04/17 03:17:19;;;;;;;12.05;5.53;;;;;;;;;;5052798;28;20206;-65
2021/04/17 03:19:46;;;;;;;5.35;4.65;;;;;;;;;;5053009;28;20726;-66
2021/04/17 03:22:13;;;;;;;6.45;5.25;;;;;;;;;;5053048;28;20198;-65
2021/04/17 03:24:40;;;;;;;9.90;5.88;;;;;;;;;;5052811;28;20280;-65
2021/04/17 03:27:08;;;;;;;14.07;5.00;;;;;;;;;;5053203;28;20353;-65
2021/04/17 03:29:35;;;;;;;8.93;5.00;;;;;;;;;;5052901;28;20223;-65
2021/04/17 03:32:02;;;;;;;9.80;5.28;;;;;;;;;;5053243;28;20195;-67
2021/04/17 03:34:29;;;;;;;8.82;4.53;;;;;;;;;;5053058;28;20202;-66
2021/04/17 03:36:55;;;;;;;5.80;4.05;;;;;;;;;;5057117;28;20194;-66
2021/04/17 03:39:22;;;;;;;8.88;5.70;;;;;;;;;;5057237;28;20199;-67
2021/04/17 03:41:49;;;;;;;7.65;5.35;;;;;;;;;;5056387;28;20653;-66
2021/04/17 03:44:16;;;;;;;9.60;5.25;;;;;;;;;;5057335;28;20191;-66
2021/04/17 03:46:43;;;;;;;6.18;4.78;;;;;;;;;;5057240;28;20194;-66
2021/04/17 03:49:10;;;;;;;11.85;4.93;;;;;;;;;;5056014;28;20234;-67
2021/04/17 03:51:37;;;;;;;6.90;4.88;;;;;;;;;;5056486;28;20194;-66
2021/04/17 03:54:04;;;;;;;7.88;4.35;;;;;;;;;;5056306;28;20194;-65
2021/04/17 03:56:30;;;;;;;8.95;5.32;;;;;;;;;;5055987;28;20730;-65
2021/04/17 03:58:57;;;;;;;9.25;5.38;;;;;;;;;;5056213;28;20203;-66
2021/04/17 04:01:25;;;;;;;7.55;4.97;;;;;;;;;;5056824;28;20653;-65
2021/04/17 04:03:51;;;;;;;5.93;5.10;;;;;;;;;;5055846;28;20195;-66
2021/04/17 04:06:19;;;;;;;8.57;4.70;;;;;;;;;;5055779;28;20195;-66
2021/04/17 04:08:45;;;;;;;7.28;5.45;;;;;;;;;;5056000;28;20223;-66
2021/04/17 04:11:12;;;;;;;5.85;5.15;;;;;;;;;;5055649;28;20195;-66
2021/04/17 04:13:39;;;;;;;9.23;5.75;;;;;;;;;;5055677;28;20672;-65
2021/04/17 04:16:06;;;;;;;5.97;4.63;;;;;;;;;;5055956;28;20217;-66
2021/04/17 04:18:33;;;;;;;5.30;4.63;;;;;;;;;;5055880;28;20198;-65
2021/04/17 04:21:00;;;;;;;6.38;5.65;;;;;;;;;;5055908;28;20190;-66
2021/04/17 04:23:26;;;;;;;9.38;4.75;;;;;;;;;;5056265;28;20205;-66
2021/04/17 04:25:53;;;;;;;9.85;5.70;;;;;;;;;;5055704;28;20222;-65
2021/04/17 04:28:20;;;;;;;7.57;5.13;;;;;;;;;;5055363;28;20638;-66
2021/04/17 04:30:47;;;;;;;8.93;5.35;;;;;;;;;;5055870;28;20226;-65
2021/04/17 04:33:14;;;;;;;13.55;6.40;;;;;;;;;;5055838;28;20245;-65
2021/04/17 04:35:42;;;;;;;7.53;6.70;;;;;;;;;;5055690;28;20277;-66
2021/04/17 04:38:08;;;;;;;9.13;5.93;;;;;;;;;;5055485;28;20203;-65
2021/04/17 04:40:35;;;;;;;8.20;6.28;;;;;;;;;;5055109;28;20281;-65
2021/04/17 04:43:02;;;;;;;10.32;6.38;;;;;;;;;;5055688;28;20195;-67
2021/04/17 04:45:29;;;;;;;8.23;6.13;;;;;;;;;;5055749;28;20662;-65
2021/04/17 04:47:55;;;;;;;10.10;6.20;;;;;;;;;;5053523;28;20214;-65
2021/04/17 04:50:22;;;;;;;10.32;6.30;;;;;;;;;;5055916;28;20187;-67
2021/04/17 04:52:50;;;;;;;6.63;5.72;;;;;;;;;;5054893;28;20201;-66
2021/04/17 04:55:16;;;;;;;7.78;5.72;;;;;;;;;;5055394;28;20198;-66
2021/04/17 04:57:43;;;;;;;8.25;5.80;;;;;;;;;;5055101;28;20199;-66
2021/04/17 05:00:10;;;;;;;6.35;5.03;;;;;;;;;;5054804;28;20211;-67
2021/04/17 05:02:37;;;;;;;8.60;6.03;;;;;;;;;;5055473;28;20298;-67
2021/04/17 05:05:04;;;;;;;7.60;5.45;;;;;;;;;;5064826;28;20214;-67
2021/04/17 05:07:31;;;;;;;11.70;5.82;;;;;;;;;;5074845;28;20195;-67
2021/04/17 05:09:58;;;;;;;12.05;5.80;;;;;;;;;;5074788;28;20565;-67
2021/04/17 05:12:25;;;;;;;7.97;5.85;;;;;;;;;;5074515;28;20194;-66
2021/04/17 05:14:52;;;;;;;11.70;6.93;;;;;;;;;;5074362;28;20670;-66
2021/04/17 05:17:18;;;;;;;10.88;6.38;;;;;;;;;;5074682;28;20198;-67
2021/04/17 05:19:45;;;;;;;9.88;6.30;;;;;;;;;;5074654;28;20201;-67
2021/04/17 05:22:12;;;;;;;13.57;6.18;;;;;;;;;;5074557;28;20286;-66
2021/04/17 05:24:39;;;;;;;8.10;5.95;;;;;;;;;;5074705;28;20197;-67
2021/04/17 05:27:07;;;;;;;9.38;5.97;;;;;;;;;;5074495;28;20289;-66
2021/04/17 05:29:34;;;;;;;14.27;6.55;;;;;;;;;;5074616;28;20222;-66
2021/04/17 05:32:00;;;;;;;8.90;5.68;;;;;;;;;;5074428;28;20198;-66
2021/04/17 05:34:27;;;;;;;13.27;6.45;;;;;;;;;;5055450;28;20221;-66
2021/04/17 05:36:54;;;;;;;8.10;5.43;;;;;;;;;;5054036;28;20665;-66
2021/04/17 05:39:21;;;;;;;11.25;5.97;;;;;;;;;;5054018;28;20299;-67
2021/04/17 05:41:47;;;;;;;10.43;6.38;;;;;;;;;;5054061;28;20195;-66
2021/04/17 05:44:15;;;;;;;12.70;6.35;;;;;;;;;;5055348;28;20229;-67
2021/04/17 05:46:43;;;;;;;8.27;6.50;;;;;;;;;;5057609;28;20205;-67
2021/04/17 05:49:10;;;;;;;6.38;5.65;;;;;;;;;;5056548;28;20222;-67
2021/04/17 05:51:38;;;;;;;10.98;6.30;;;;;;;;;;5056204;28;20289;-67
2021/04/17 05:54:05;;;;;;;7.55;4.90;;;;;;;;;;5054403;28;20198;-66
2021/04/17 05:56:31;;;;;;;7.93;6.20;;;;;;;;;;5055294;28;20275;-67
2021/04/17 05:58:58;;;;;;;8.32;5.80;;;;;;;;;;5055843;28;20198;-67
2021/04/17 06:01:26;;;;;;;8.32;6.15;;;;;;;;;;5055183;28;20195;-67
2021/04/17 06:03:53;;;;;;;8.45;6.30;;;;;;;;;;5054121;28;20226;-67
2021/04/17 06:06:19;;;;;;;11.27;6.35;;;;;;;;;;5053603;28;20289;-67
2021/04/17 06:08:46;;;;;;;8.60;5.95;;;;;;;;;;5053878;28;20225;-67
2021/04/17 06:11:13;;;;;;;11.25;6.20;;;;;;;;;;5053654;28;20223;-67
2021/04/17 06:13:39;;;;;;;30.10;19.42;;;;;;;;;;5053676;28;20648;-67
2021/04/17 06:16:07;;;;;;;10.23;6.28;;;;;;;;;;5053632;28;20199;-67
2021/04/17 06:18:35;;;;;;;8.02;6.82;;;;;;;;;;5053586;28;20203;-67
2021/04/17 06:21:02;;;;;;;11.15;6.00;;;;;;;;;;5053793;28;20195;-67
2021/04/17 06:23:29;;;;;;;11.52;5.60;;;;;;;;;;5053539;28;20192;-67
2021/04/17 06:25:55;;;;;;;12.88;5.85;;;;;;;;;;5053618;28;20199;-68
2021/04/17 06:28:22;;;;;;;14.68;6.68;;;;;;;;;;5053083;28;20215;-68
2021/04/17 06:30:49;;;;;;;11.00;5.38;;;;;;;;;;5053428;28;20220;-68
2021/04/17 06:33:15;;;;;;;11.70;6.40;;;;;;;;;;5053266;28;20286;-68
2021/04/17 06:35:43;;;;;;;13.82;5.53;;;;;;;;;;5053071;28;20654;-68
2021/04/17 06:38:13;;;;;;;11.98;5.80;;;;;;;;;;5053402;28;20667;-68
2021/04/17 06:40:40;;;;;;;11.07;5.95;;;;;;;;;;5053178;28;20210;-67
2021/04/17 06:43:06;;;;;;;15.30;6.00;;;;;;;;;;5053591;28;20711;-68
2021/04/17 06:45:34;;;;;;;10.68;6.30;;;;;;;;;;5053011;28;20195;-67
2021/04/17 06:48:02;;;;;;;6.80;5.47;;;;;;;;;;5053137;28;20224;-68
2021/04/17 06:50:29;;;;;;;13.70;7.28;;;;;;;;;;5053058;28;20183;-68
2021/04/17 06:52:57;;;;;;;12.02;5.65;;;;;;;;;;5053919;28;20204;-68
2021/04/17 06:55:24;;;;;;;8.70;6.35;;;;;;;;;;5053346;28;20328;-67
2021/04/17 06:57:51;;;;;;;14.02;6.47;;;;;;;;;;5053691;28;20205;-67
2021/04/17 07:00:19;;;;;;;12.75;6.65;;;;;;;;;;5053585;28;20198;-67
2021/04/17 07:02:46;;;;;;;9.95;7.00;;;;;;;;;;5052721;28;20203;-68
2021/04/17 07:05:13;;;;;;;10.88;6.30;;;;;;;;;;5053069;28;20233;-67
2021/04/17 07:07:40;;;;;;;17.35;7.07;;;;;;;;;;5052723;28;20282;-67
2021/04/17 07:10:08;;;;;;;13.43;7.30;;;;;;;;;;5053191;28;20225;-67
2021/04/17 07:12:34;;;;;;;13.43;6.18;;;;;;;;;;5056883;28;20197;-67
2021/04/17 07:15:04;;;;;;;10.45;5.60;;;;;;;;;;5057004;28;20557;-67
2021/04/17 07:17:33;;;;;;;9.60;6.38;;;;;;;;;;5056631;28;20298;-67
2021/04/17 07:20:00;;;;;;;15.18;6.00;;;;;;;;;;5056891;28;20290;-67
2021/04/17 07:22:28;;;;;;;15.60;7.47;;;;;;;;;;5056573;28;20723;-67
2021/04/17 07:24:55;;;;;;;13.27;7.60;;;;;;;;;;5056471;28;20199;-67
2021/04/17 07:27:43;;;;;;;13.68;6.60;;;;;;;;;;5057024;28;20289;-67
2021/04/17 07:30:26;;;;;;;12.65;6.43;;;;;;;;;;5053232;28;20226;-68
2021/04/17 07:33:05;;;;;;;10.57;6.25;;;;;;;;;;5062012;28;20187;-67
2021/04/17 07:35:33;;;;;;;12.32;6.53;;;;;;;;;;5076709;28;20182;-67
2021/04/17 07:38:11;;;;;;;12.07;6.72;;;;;;;;;;5076878;28;20249;-67
2021/04/17 07:40:38;;;;;;;14.40;6.60;;;;;;;;;;5076229;28;20186;-66
2021/04/17 07:43:04;;;;;;;9.48;6.57;;;;;;;;;;5076453;28;20672;-66
2021/04/17 07:45:32;;;;;;;13.68;6.53;;;;;;;;;;5077049;28;20191;-67
2021/04/17 07:48:00;;;;;;;7.70;6.90;;;;;;;;;;5076081;28;20226;-67
2021/04/17 07:50:32;;;;;;;14.00;7.60;;;;;;;;;;5076998;28;20282;-68
2021/04/17 07:52:59;;;;;;;11.23;6.80;;;;;;;;;;5075998;28;20274;-67
2021/04/17 07:55:30;;;;;;;15.63;6.80;;;;;;;;;;5076311;28;20606;-67
2021/04/17 07:57:58;;;;;;;9.68;6.38;;;;;;;;;;5075948;28;20221;-67
2021/04/17 08:00:27;;;;;;;13.45;6.68;;;;;;;;;;5075750;28;20226;-67
2021/04/17 08:02:54;;;;;;;12.27;7.93;;;;;;;;;;5070045;28;20297;-67
2021/04/17 08:05:21;;;;;;;13.48;6.03;;;;;;;;;;5055905;28;20196;-67
2021/04/17 08:07:49;;;;;;;14.00;6.57;;;;;;;;;;5056351;28;20196;-67
2021/04/17 08:10:17;;;;;;;8.10;6.18;;;;;;;;;;5056310;28;20319;-66
2021/04/17 08:12:44;;;;;;;9.35;6.28;;;;;;;;;;5055876;28;20293;-67
2021/04/17 08:15:12;;;;;;;13.35;6.65;;;;;;;;;;5055902;28;20229;-67
2021/04/17 08:17:39;;;;;;;11.32;7.45;;;;;;;;;;5055558;28;20714;-67
2021/04/17 08:20:08;;;;;;;15.07;6.60;;;;;;;;;;5056322;28;20209;-67
2021/04/17 08:22:34;;;;;;;13.80;7.72;;;;;;;;;;5055354;28;20203;-67
2021/04/17 08:25:02;;;;;;;20.48;6.93;;;;;;;;;;5055829;28;20201;-67
2021/04/17 08:27:30;;;;;;;12.07;7.15;;;;;;;;;;5055846;28;20200;-67
2021/04/17 08:29:57;;;;;;;10.60;6.72;;;;;;;;;;5055406;28;20212;-67
2021/04/17 08:32:25;;;;;;;12.40;6.93;;;;;;;;;;5055855;28;20196;-67
2021/04/17 08:35:02;;;;;;;11.93;6.10;;;;;;;;;;5055350;28;20197;-67
2021/04/17 08:37:30;;;;;;;10.90;6.10;;;;;;;;;;5058583;28;20549;-67
2021/04/17 08:39:57;;;;;;;11.60;6.80;;;;;;;;;;5058456;28;20200;-67
2021/04/17 08:42:43;;;;;;;7.35;5.97;;;;;;;;;;5056053;28;20288;-67
2021/04/17 08:45:11;;;;;;;10.68;7.25;;;;;;;;;;5055582;28;20545;-67
2021/04/17 08:47:45;;;;;;;10.38;6.53;;;;;;;;;;5054753;28;20245;-65
2021/04/17 08:50:22;;;;;;;13.80;6.30;;;;;;;;;;5055253;28;20291;-68
2021/04/17 08:52:55;;;;;;;21.55;10.50;;;;;;;;;;5055469;28;20192;-67
2021/04/17 08:55:22;;;;;;;16.33;7.63;;;;;;;;;;5055372;28;20270;-67
2021/04/17 08:58:10;;;;;;;12.15;6.25;;;;;;;;;;5054802;28;20195;-68
2021/04/17 09:00:37;;;;;;;9.52;6.97;;;;;;;;;;5054781;28;20633;-67
2021/04/17 09:03:04;;;;;;;14.32;7.15;;;;;;;;;;5054971;28;20286;-67
2021/04/17 09:05:43;;;;;;;9.52;6.28;;;;;;;;;;5054592;28;20291;-67
2021/04/17 09:08:12;;;;;;;9.07;5.57;;;;;;;;;;5054761;28;20278;-67
2021/04/17 09:10:39;;;;;;;9.82;5.18;;;;;;;;;;5055060;28;20197;-67
2021/04/17 09:13:24;;;;;;;8.57;5.05;;;;;;;;;;5054288;28;20227;-67
2021/04/17 09:15:52;;;;;;;12.38;5.30;;;;;;;;;;5054288;28;20223;-67
2021/04/17 09:18:33;;;;;;;9.00;5.47;;;;;;;;;;5054804;28;20199;-67
2021/04/17 09:21:00;;;;;;;12.52;5.05;;;;;;;;;;5054782;28;20604;-67
2021/04/17 09:23:36;;;;;;;7.45;4.90;;;;;;;;;;5054788;28;20193;-69
2021/04/17 09:26:03;;;;;;;8.20;4.97;;;;;;;;;;5054500;28;20195;-67
2021/04/17 09:28:36;;;;;;;9.05;5.15;;;;;;;;;;5058981;28;20314;-67
2021/04/17 09:31:03;;;;;;;14.27;5.10;;;;;;;;;;5066671;28;20282;-67
2021/04/17 09:33:30;;;;;;;11.50;5.05;;;;;;;;;;5073221;28;20312;-67
2021/04/17 09:35:57;;;;;;;10.82;5.03;;;;;;;;;;5074599;28;20198;-67
2021/04/17 09:38:30;;;;;;;6.13;4.38;;;;;;;;;;5072995;28;20206;-67
2021/04/17 09:40:57;;;;;;;6.47;4.70;;;;;;;;;;5073904;28;20216;-67
2021/04/17 09:43:24;;;;;;;6.10;4.15;;;;;;;;;;5074339;28;20278;-67
2021/04/17 09:45:52;;;;;;;10.60;4.47;;;;;;;;;;5073624;28;20288;-67
2021/04/17 09:48:21;;;;;;;10.50;3.92;;;;;;;;;;5073350;28;20237;-67
2021/04/17 09:50:48;;;;;;;4.00;3.67;;;;;;;;;;5073682;28;20198;-67
2021/04/17 09:53:16;;;;;;;9.95;4.55;;;;;;;;;;5074265;28;20195;-67
2021/04/17 09:55:53;;;;;;;4.50;3.40;;;;;;;;;;5074416;28;20283;-66
2021/04/17 09:58:21;;;;;;;7.85;3.20;;;;;;;;;;5065593;28;20296;-67
2021/04/17 10:00:48;;;;;;;4.68;3.38;;;;;;;;;;5053553;28;20195;-67
2021/04/17 10:03:15;;;;;;;4.65;2.78;;;;;;;;;;5053672;28;20202;-67
2021/04/17 10:05:43;;;;;;;5.35;2.20;;;;;;;;;;5054241;28;20224;-66
2021/04/17 10:08:09;;;;;;;4.73;2.27;;;;;;;;;;5054131;28;20225;-67
2021/04/17 10:10:36;;;;;;;5.45;4.15;;;;;;;;;;5053713;28;20496;-67
2021/04/17 10:13:03;;;;;;;3.38;2.63;;;;;;;;;;5054098;28;20202;-67
2021/04/17 10:15:30;;;;;;;3.85;2.67;;;;;;;;;;5053577;28;20212;-67
2021/04/17 10:17:58;;;;;;;5.82;2.20;;;;;;;;;;5054549;28;20295;-66
2021/04/17 10:20:26;;;;;;;3.70;2.00;;;;;;;;;;5057883;28;20204;-66
2021/04/17 10:22:54;;;;;;;2.45;2.25;;;;;;;;;;5057220;28;20206;-66
2021/04/17 10:25:33;;;;;;;4.15;2.55;;;;;;;;;;5056237;28;20211;-68
2021/04/17 10:28:11;;;;;;;2.83;2.45;;;;;;;;;;5053104;28;20205;-67
2021/04/17 10:30:37;;;;;;;6.50;4.00;;;;;;;;;;5054110;28;20241;-67
2021/04/17 10:33:05;;;;;;;8.40;5.10;;;;;;;;;;5053515;28;20197;-67
2021/04/17 10:35:33;;;;;;;7.30;3.20;;;;;;;;;;5053028;28;21000;-68
2021/04/17 10:38:02;;;;;;;4.40;2.75;;;;;;;;;;5053077;28;20195;-68
2021/04/17 10:40:29;;;;;;;3.87;2.90;;;;;;;;;;5052961;28;20207;-68
2021/04/17 10:42:57;;;;;;;4.30;2.73;;;;;;;;;;5053580;28;20578;-68
2021/04/17 10:45:24;;;;;;;7.30;3.20;;;;;;;;;;5055700;28;20523;-68
2021/04/17 10:48:01;;;;;;;6.63;2.87;;;;;;;;;;5057121;28;20449;-67
2021/04/17 10:50:28;;;;;;;3.13;2.83;;;;;;;;;;5057360;28;20464;-68
2021/04/17 10:53:07;;;;;;;3.53;2.57;;;;;;;;;;5057230;28;20473;-68
2021/04/17 10:55:37;;;;;;;9.10;3.00;;;;;;;;;;5058474;28;20787;-68
2021/04/17 10:58:04;;;;;;;4.88;3.05;;;;;;;;;;5059408;28;20436;-68
2021/04/17 11:00:31;;;;;;;3.73;3.33;;;;;;;;;;5059789;28;20201;-68
2021/04/17 11:03:00;;;;;;;4.20;3.03;;;;;;;;;;5058407;28;20523;-68
2021/04/17 11:05:30;;;;;;;7.90;3.40;;;;;;;;;;5057320;28;20445;-69
2021/04/17 11:07:58;;;;;;;3.80;2.80;;;;;;;;;;5057369;28;20444;-68
2021/04/17 11:10:33;;;;;;;2.57;2.37;;;;;;;;;;5058520;28;20472;-67
2021/04/17 11:13:01;;;;;;;4.18;3.38;;;;;;;;;;5058557;28;20536;-67
2021/04/17 11:15:29;;;;;;;3.03;2.60;;;;;;;;;;5057039;28;20245;-68
2021/04/17 11:18:14;;;;;;;6.85;2.80;;;;;;;;;;5057105;28;20209;-68
2021/04/17 11:20:49;;;;;;;8.23;3.00;;;;;;;;;;5056965;28;20310;-68
2021/04/17 11:23:35;;;;;;;10.98;3.63;;;;;;;;;;5057054;28;20637;-69
2021/04/17 11:26:02;;;;;;;6.70;2.83;;;;;;;;;;5056948;28;20241;-68
2021/04/17 11:28:29;;;;;;;6.30;3.45;;;;;;;;;;5057004;28;20248;-68
2021/04/17 11:30:56;;;;;;;4.05;2.88;;;;;;;;;;5056978;28;20199;-68
2021/04/17 11:33:23;;;;;;;4.25;3.03;;;;;;;;;;5057467;28;20288;-69
2021/04/17 11:35:50;;;;;;;5.03;2.60;;;;;;;;;;5056758;28;20593;-68
2021/04/17 11:38:17;;;;;;;6.25;2.95;;;;;;;;;;5056308;28;20235;-67
2021/04/17 11:40:44;;;;;;;3.15;2.67;;;;;;;;;;5056298;28;20671;-67
2021/04/17 11:43:10;;;;;;;3.10;2.67;;;;;;;;;;5056030;28;20200;-68
2021/04/17 11:45:38;;;;;;;4.90;2.63;;;;;;;;;;5056481;28;20738;-67
2021/04/17 11:48:05;;;;;;;3.90;3.50;;;;;;;;;;5056020;28;20708;-68
2021/04/17 11:50:32;;;;;;;3.97;3.20;;;;;;;;;;5056346;28;20302;-69
2021/04/17 11:52:59;;;;;;;7.65;4.30;;;;;;;;;;5056184;28;20202;-68
2021/04/17 11:55:25;;;;;;;4.18;2.67;;;;;;;;;;5055927;28;20402;-70
2021/04/17 11:57:52;;;;;;;6.22;3.13;;;;;;;;;;5055506;28;20206;-70
2021/04/17 12:00:20;;;;;;;3.95;3.20;;;;;;;;;;5056176;28;20201;-68
2021/04/17 12:02:47;;;;;;;4.55;2.97;;;;;;;;;;5056399;28;20202;-69
2021/04/17 12:05:14;;;;;;;5.60;3.23;;;;;;;;;;5056151;28;20202;-68
2021/04/17 12:07:41;;;;;;;4.70;2.97;;;;;;;;;;5056551;28;20445;-68
2021/04/17 12:10:09;;;;;;;8.20;2.83;;;;;;;;;;5055696;28;20313;-69
2021/04/17 12:12:36;;;;;;;6.43;3.40;;;;;;;;;;5055726;28;20488;-69
2021/04/17 12:15:03;;;;;;;6.03;3.40;;;;;;;;;;5056322;28;20527;-68
2021/04/17 12:17:29;;;;;;;7.07;3.03;;;;;;;;;;5055902;28;20441;-68
2021/04/17 12:19:58;;;;;;;5.20;2.90;;;;;;;;;;5054675;28;20503;-68
2021/04/17 12:22:25;;;;;;;5.43;2.70;;;;;;;;;;5055291;28;20470;-68
2021/04/17 12:24:52;;;;;;;5.90;4.10;;;;;;;;;;5055872;28;20441;-69
2021/04/17 12:27:19;;;;;;;3.55;2.88;;;;;;;;;;5055471;28;20475;-68
2021/04/17 12:29:46;;;;;;;5.53;3.07;;;;;;;;;;5055825;28;20552;-68
2021/04/17 12:32:13;;;;;;;7.30;3.40;;;;;;;;;;5055548;28;20453;-67
2021/04/17 12:34:40;;;;;;;3.80;3.42;;;;;;;;;;5055463;28;20673;-68
2021/04/17 12:37:07;;;;;;;6.80;3.07;;;;;;;;;;5055417;28;20229;-68
2021/04/17 12:39:34;;;;;;;6.05;3.35;;;;;;;;;;5055287;28;20474;-69
2021/04/17 12:42:03;;;;;;;8.30;3.53;;;;;;;;;;5055712;28;20197;-67
2021/04/17 12:44:30;;;;;;;3.63;2.53;;;;;;;;;;5055015;28;20224;-67
2021/04/17 12:46:57;;;;;;;4.40;2.47;;;;;;;;;;5055675;28;20441;-67
2021/04/17 12:49:24;;;;;;;7.00;3.15;;;;;;;;;;5054916;28;20488;-67
2021/04/17 12:51:50;;;;;;;6.00;4.10;;;;;;;;;;5055445;28;20227;-67
2021/04/17 12:54:21;;;;;;;6.40;3.03;;;;;;;;;;5054851;28;20444;-67
2021/04/17 12:56:48;;;;;;;3.20;2.90;;;;;;;;;;5055235;28;20449;-68
2021/04/17 12:59:14;;;;;;;7.63;3.43;;;;;;;;;;5054852;28;20238;-67
2021/04/17 13:01:41;;;;;;;9.60;2.90;;;;;;;;;;5054650;28;20455;-67
2021/04/17 13:04:08;;;;;;;11.63;6.27;;;;;;;;;;5054576;28;20518;-68
2021/04/17 13:06:34;;;;;;;8.53;3.40;;;;;;;;;;5054837;28;20448;-68
2021/04/17 13:09:01;;;;;;;8.47;3.67;;;;;;;;;;5054010;28;20535;-68
2021/04/17 13:11:29;;;;;;;4.40;3.30;;;;;;;;;;5054559;28;20536;-68
2021/04/17 13:13:55;;;;;;;3.23;2.73;;;;;;;;;;5054466;28;20441;-69
2021/04/17 13:16:22;;;;;;;6.17;3.13;;;;;;;;;;5054668;28;20811;-69
2021/04/17 13:18:49;;;;;;;7.07;3.40;;;;;;;;;;5054252;28;20524;-67
2021/04/17 13:21:16;;;;;;;7.27;3.23;;;;;;;;;;5053282;28;20461;-68
2021/04/17 13:23:43;;;;;;;7.87;3.00;;;;;;;;;;5054428;28;20448;-68
2021/04/17 13:26:10;;;;;;;9.50;3.13;;;;;;;;;;5054365;28;20531;-67
2021/04/17 13:28:38;;;;;;;10.30;3.40;;;;;;;;;;5054402;28;20441;-64
2021/04/17 13:31:05;;;;;;;4.63;3.37;;;;;;;;;;5054381;28;20436;-64
2021/04/17 13:33:31;;;;;;;4.53;3.73;;;;;;;;;;5054058;28;20587;-64
2021/04/17 13:35:58;;;;;;;6.73;3.33;;;;;;;;;;5069137;28;20533;-64
2021/04/17 13:38:25;;;;;;;7.20;4.20;;;;;;;;;;5054314;28;20536;-64
2021/04/17 13:40:51;;;;;;;6.13;3.83;;;;;;;;;;5054095;28;20440;-64
2021/04/17 13:43:18;;;;;;;7.17;3.30;;;;;;;;;;5053667;28;20461;-64
2021/04/17 13:45:46;;;;;;;3.10;2.70;;;;;;;;;;5054395;28;20491;-63
2021/04/17 13:48:12;;;;;;;4.63;3.30;;;;;;;;;;5053897;28;20551;-62
2021/04/17 13:50:39;;;;;;;7.40;3.20;;;;;;;;;;5054253;28;20498;-64
2021/04/17 13:53:06;;;;;;;5.47;3.40;;;;;;;;;;5053911;28;20507;-63
2021/04/17 13:55:34;;;;;;;5.03;2.80;;;;;;;;;;5054054;28;20861;-64
2021/04/17 13:58:01;;;;;;;4.70;2.73;;;;;;;;;;5053924;28;20855;-63
2021/04/17 14:00:27;;;;;;;6.97;2.87;;;;;;;;;;5053529;28;20481;-64
2021/04/17 14:02:55;;;;;;;3.87;2.67;;;;;;;;;;5054219;28;20520;-63
2021/04/17 14:05:22;;;;;;;12.70;3.43;;;;;;;;;;5053799;28;20472;-63
2021/04/17 14:07:49;;;;;;;5.53;3.50;;;;;;;;;;5053745;28;20440;-63
2021/04/17 14:10:16;;;;;;;11.20;3.90;;;;;;;;;;5053682;28;20564;-63
2021/04/17 14:12:43;;;;;;;5.53;3.30;;;;;;;;;;5053765;28;20510;-63
2021/04/17 14:15:10;;;;;;;5.17;3.63;;;;;;;;;;5053761;28;20441;-63
2021/04/17 14:17:38;;;;;;;6.37;3.53;;;;;;;;;;5053701;28;20465;-63
2021/04/17 14:20:07;;;;;;;3.53;3.10;;;;;;;;;;5053500;28;20531;-64
2021/04/17 14:22:34;;;;;;;5.60;3.73;;;;;;;;;;5053173;28;20448;-64
2021/04/17 14:25:00;;;;;;;5.77;3.50;;;;;;;;;;5053182;28;20445;-64
2021/04/17 14:27:27;;;;;;;4.30;3.90;;;;;;;;;;5053379;28;20539;-64
2021/04/17 14:29:54;;;;;;;8.03;3.90;;;;;;;;;;5052931;28;21072;-63
2021/04/17 14:32:21;;;;;;;6.67;2.93;;;;;;;;;;5053050;28;20491;-63
2021/04/17 14:34:48;;;;;;;8.00;4.07;;;;;;;;;;5054154;28;20516;-63
2021/04/17 14:37:16;;;;;;;7.23;3.37;;;;;;;;;;5053024;28;20447;-63
2021/04/17 14:39:43;;;;;;;7.07;3.87;;;;;;;;;;5052970;28;20444;-63
2021/04/17 14:42:10;;;;;;;4.13;3.47;;;;;;;;;;5053517;28;20460;-63